Time;durP1;ratioP1;P1;durP2;ratioP2;P2;SDS_P1;SDS_P2;PMS_P1;PMS_P2;Temp;Humidity;BMP_temperature;BMP_pressure;BME280_temperature;BME280_humidity;BME280_pressure;Samples;Min_cycle;Max_cycle;Signal;HPM_P1;HPM_P2
2023/09/08 00:02:25;;;;;;;8.75;5.85;;;;;;;22.96;100.00;96489.34;6132245;23;20148;-82
2023/09/08 00:04:51;;;;;;;8.55;5.40;;;;;;;23.28;100.00;96492.53;6156857;23;20012;-82
2023/09/08 00:07:16;;;;;;;9.00;5.68;;;;;;;23.17;100.00;96488.81;6153559;23;20525;-82
2023/09/08 00:09:43;;;;;;;7.55;5.10;;;;;;;23.14;100.00;96481.22;6130344;23;20682;-82
2023/09/08 00:12:09;;;;;;;11.15;6.35;;;;;;;23.10;100.00;96485.38;6155308;23;20009;-82
2023/09/08 00:14:34;;;;;;;9.35;5.95;;;;;;;23.26;100.00;96479.34;6131194;23;20450;-82
2023/09/08 00:17:00;;;;;;;9.57;6.35;;;;;;;23.14;100.00;96480.38;6154764;23;20051;-82
2023/09/08 00:19:25;;;;;;;10.48;6.43;;;;;;;22.91;100.00;96475.81;6155808;23;20009;-82
2023/09/08 00:21:51;;;;;;;11.20;5.95;;;;;;;23.29;100.00;96478.88;6131490;23;20009;-82
2023/09/08 00:24:17;;;;;;;8.77;5.47;;;;;;;23.57;100.00;96473.81;6131193;23;20044;-82
2023/09/08 00:26:43;;;;;;;10.43;6.30;;;;;;;23.09;100.00;96478.41;6130475;23;20009;-82
2023/09/08 00:29:16;;;;;;;10.30;5.93;;;;;;;23.29;100.00;96473.50;6155204;23;20401;-82
2023/09/08 00:31:42;;;;;;;9.07;6.15;;;;;;;23.10;100.00;96471.97;6131363;23;20013;-82
2023/09/08 00:34:08;;;;;;;10.05;7.43;;;;;;;23.09;100.00;96473.03;6130363;23;20292;-82
2023/09/08 00:36:33;;;;;;;9.38;6.68;;;;;;;23.02;100.00;96475.03;6130102;23;20044;-81
2023/09/08 00:38:59;;;;;;;8.98;5.85;;;;;;;22.58;100.00;96471.75;6180551;23;20036;-82
2023/09/08 00:41:24;;;;;;;7.57;5.57;;;;;;;23.14;100.00;96470.50;6130481;23;20004;-82
2023/09/08 00:43:50;;;;;;;9.85;6.93;;;;;;;23.36;100.00;96472.56;6131031;23;20156;-82
2023/09/08 00:46:17;;;;;;;9.60;7.32;;;;;;;22.97;100.00;96465.00;6179517;23;20374;-82
2023/09/08 00:48:43;;;;;;;9.13;6.63;;;;;;;22.95;100.00;96456.34;6131784;23;20005;-82
2023/09/08 00:51:09;;;;;;;10.68;6.85;;;;;;;22.76;100.00;96463.63;6131345;23;20005;-82
2023/09/08 00:53:36;;;;;;;8.90;6.60;;;;;;;23.18;100.00;96462.78;6131693;23;20009;-82
2023/09/08 00:56:02;;;;;;;9.05;6.50;;;;;;;22.95;100.00;96461.72;6131737;23;20349;-82
2023/09/08 00:58:29;;;;;;;10.80;6.63;;;;;;;22.62;100.00;96456.84;6154097;23;20004;-82
2023/09/08 01:00:57;;;;;;;11.98;6.35;;;;;;;22.94;100.00;96459.28;6136360;23;20016;-83
2023/09/08 01:03:23;;;;;;;10.70;6.60;;;;;;;23.34;100.00;96461.25;6132610;23;20009;-82
2023/09/08 01:05:49;;;;;;;12.68;6.97;;;;;;;23.11;100.00;96468.25;6129817;23;20104;-82
2023/09/08 01:08:16;;;;;;;8.80;6.57;;;;;;;23.12;100.00;96472.56;6129679;23;20032;-82
2023/09/08 01:10:42;;;;;;;10.57;6.80;;;;;;;23.20;100.00;96477.56;6130920;23;20013;-82
2023/09/08 01:13:08;;;;;;;9.25;6.30;;;;;;;22.90;100.00;96472.28;6130127;23;20004;-82
2023/09/08 01:15:33;;;;;;;9.18;6.47;;;;;;;22.75;100.00;96470.03;6131060;23;20005;-82
2023/09/08 01:17:59;;;;;;;10.10;6.35;;;;;;;22.53;100.00;96474.31;6131013;23;20318;-82
2023/09/08 01:20:54;;;;;;;10.60;7.38;;;;;;;22.70;100.00;96477.97;6131183;23;20007;-83
2023/09/08 01:23:38;;;;;;;8.73;6.70;;;;;;;22.45;100.00;96466.59;6143916;23;20036;-83
2023/09/08 01:26:09;;;;;;;10.30;6.90;;;;;;;22.67;100.00;96474.91;6157021;23;20058;-83
2023/09/08 01:28:37;;;;;;;10.37;7.17;;;;;;;22.73;100.00;96474.81;6132926;23;19997;-83
2023/09/08 01:31:03;;;;;;;12.88;7.63;;;;;;;22.69;100.00;96468.28;6133039;23;20013;-82
2023/09/08 01:33:30;;;;;;;8.45;7.00;;;;;;;22.75;100.00;96467.38;6130678;23;20400;-82
2023/09/08 01:35:56;;;;;;;9.48;7.43;;;;;;;22.39;100.00;96470.19;6155179;23;20024;-82
2023/09/08 01:38:23;;;;;;;12.20;7.43;;;;;;;22.65;100.00;96467.13;6155173;23;20009;-82
2023/09/08 01:40:49;;;;;;;9.17;7.30;;;;;;;22.67;100.00;96470.41;6129398;23;20025;-82
2023/09/08 01:43:14;;;;;;;9.90;7.07;;;;;;;22.72;100.00;96461.66;6153205;23;20001;-83
2023/09/08 01:45:40;;;;;;;9.10;6.10;;;;;;;22.67;100.00;96465.03;6128893;23;20004;-82
2023/09/08 01:48:07;;;;;;;10.38;7.20;;;;;;;22.53;100.00;96463.56;6153505;23;20036;-83
2023/09/08 01:50:33;;;;;;;9.95;6.85;;;;;;;22.55;100.00;96461.50;6179051;23;20013;-82
2023/09/08 01:52:58;;;;;;;9.43;6.55;;;;;;;22.73;100.00;96453.38;6128520;23;20024;-83
2023/09/08 01:55:24;;;;;;;9.43;6.47;;;;;;;22.75;100.00;96443.25;6127295;23;20499;-82
2023/09/08 01:57:49;;;;;;;9.50;7.40;;;;;;;22.65;100.00;96456.38;6152325;23;20005;-82
2023/09/08 02:00:17;;;;;;;10.13;6.90;;;;;;;22.58;100.00;96461.84;6129612;23;20008;-82
2023/09/08 02:02:46;;;;;;;9.57;6.68;;;;;;;22.47;100.00;96459.97;6128244;23;20083;-82
2023/09/08 02:05:12;;;;;;;8.98;6.93;;;;;;;22.08;100.00;96467.47;6132686;23;20433;-82
2023/09/08 02:07:38;;;;;;;10.60;7.00;;;;;;;22.33;100.00;96458.50;6132127;23;20007;-83
2023/09/08 02:10:03;;;;;;;9.80;6.80;;;;;;;21.76;100.00;96468.69;6133042;23;19997;-82
2023/09/08 02:12:29;;;;;;;9.30;7.23;;;;;;;21.75;100.00;96462.53;6156969;23;20008;-82
2023/09/08 02:15:04;;;;;;;10.20;7.53;;;;;;;21.78;100.00;96458.59;6133621;23;20012;-82
2023/09/08 02:17:30;;;;;;;10.03;6.83;;;;;;;21.62;100.00;96463.50;6131800;23;20011;-82
2023/09/08 02:19:56;;;;;;;10.73;7.17;;;;;;;22.09;100.00;96463.75;6132653;23;20088;-82
2023/09/08 02:22:21;;;;;;;8.93;6.93;;;;;;;22.30;100.00;96464.31;6133360;23;20430;-82
2023/09/08 02:24:47;;;;;;;10.97;7.63;;;;;;;22.29;100.00;96460.00;6132693;23;20426;-82
2023/09/08 02:27:12;;;;;;;11.00;7.43;;;;;;;22.26;100.00;96466.63;6131560;23;20397;-82
2023/09/08 02:29:45;;;;;;;9.80;6.73;;;;;;;22.30;100.00;96461.63;6132518;23;19994;-82
2023/09/08 02:32:11;;;;;;;10.43;7.15;;;;;;;22.22;100.00;96461.97;6158901;23;20016;-82
2023/09/08 02:34:37;;;;;;;9.30;6.77;;;;;;;21.91;100.00;96458.44;6134751;23;20009;-82
2023/09/08 02:37:04;;;;;;;9.47;7.53;;;;;;;22.16;100.00;96458.31;6134214;23;20020;-83
2023/09/08 02:39:32;;;;;;;12.07;7.20;;;;;;;22.24;100.00;96467.94;6133567;23;20084;-83
2023/09/08 02:41:57;;;;;;;12.33;7.73;;;;;;;21.88;100.00;96466.91;6133763;23;20012;-82
2023/09/08 02:44:23;;;;;;;12.80;7.20;;;;;;;22.21;100.00;96466.50;6158687;23;20338;-82
2023/09/08 02:46:49;;;;;;;10.63;7.57;;;;;;;22.43;100.00;96457.97;6133791;23;20429;-82
2023/09/08 02:49:14;;;;;;;9.23;7.00;;;;;;;22.49;100.00;96462.41;6133924;23;20009;-83
2023/09/08 02:51:40;;;;;;;13.53;7.40;;;;;;;22.20;100.00;96464.03;6133967;23;20005;-82
2023/09/08 02:54:05;;;;;;;9.80;7.43;;;;;;;22.37;100.00;96465.06;6134000;23;20384;-82
2023/09/08 02:56:31;;;;;;;10.57;7.43;;;;;;;22.29;100.00;96460.81;6133589;23;20403;-82
2023/09/08 02:59:00;;;;;;;11.60;7.67;;;;;;;22.24;100.00;96466.06;6158872;23;20075;-83
2023/09/08 03:01:25;;;;;;;11.03;7.40;;;;;;;22.24;100.00;96458.03;6131116;23;20059;-82
2023/09/08 03:03:51;;;;;;;9.80;7.47;;;;;;;22.27;100.00;96460.25;6142351;23;20021;-83
2023/09/08 03:06:20;;;;;;;10.10;7.13;;;;;;;22.26;100.00;96461.28;6130900;23;20001;-82
2023/09/08 03:08:46;;;;;;;10.07;7.63;;;;;;;22.23;100.00;96456.41;6129908;23;20001;-82
2023/09/08 03:11:12;;;;;;;10.00;6.90;;;;;;;22.30;100.00;96457.13;6155409;23;19997;-82
2023/09/08 03:13:39;;;;;;;11.87;7.90;;;;;;;21.68;100.00;96456.44;6154494;23;20062;-82
2023/09/08 03:16:06;;;;;;;19.03;8.80;;;;;;;21.59;100.00;96453.22;6129644;23;20001;-83
2023/09/08 03:18:38;;;;;;;9.80;7.47;;;;;;;21.73;100.00;96453.91;6129960;23;20439;-82
2023/09/08 03:21:09;;;;;;;7.95;5.57;;;;;;;21.63;100.00;96453.63;6130055;23;20009;-82
2023/09/08 03:23:45;;;;;;;13.60;8.63;;;;;;;21.61;100.00;96450.34;6129554;23;20479;-83
2023/09/08 03:26:11;;;;;;;15.00;10.00;;;;;;;21.74;100.00;96450.19;6129907;23;20100;-83
2023/09/08 03:28:38;;;;;;;11.27;8.23;;;;;;;21.55;100.00;96441.34;6154293;23;20028;-82
2023/09/08 03:31:04;;;;;;;10.23;7.53;;;;;;;21.82;100.00;96441.84;6153967;23;20009;-82
2023/09/08 03:33:33;;;;;;;11.27;8.10;;;;;;;21.36;100.00;96445.91;6156359;23;20441;-89
2023/09/08 03:35:59;;;;;;;11.90;8.37;;;;;;;21.25;100.00;96443.09;6133401;23;20009;-82
2023/09/08 03:38:25;;;;;;;10.17;7.60;;;;;;;21.47;100.00;96443.50;6130411;23;20013;-82
2023/09/08 03:40:51;;;;;;;11.13;7.73;;;;;;;21.54;100.00;96439.72;6131051;23;20016;-90
2023/09/08 03:43:20;;;;;;;13.30;8.60;;;;;;;21.08;100.00;96445.50;6160450;23;20008;-90
2023/09/08 03:45:47;;;;;;;12.83;7.33;;;;;;;21.37;100.00;96436.00;6130097;23;20004;-83
2023/09/08 03:48:13;;;;;;;11.43;7.37;;;;;;;21.56;100.00;96447.50;6130098;23;20132;-83
2023/09/08 03:50:38;;;;;;;10.70;7.30;;;;;;;21.47;100.00;96435.50;6154977;23;20418;-84
2023/09/08 03:53:05;;;;;;;11.20;8.07;;;;;;;21.26;100.00;96444.72;6154023;23;20009;-83
2023/09/08 03:55:31;;;;;;;11.47;8.00;;;;;;;21.09;100.00;96447.13;6129155;23;20008;-83
2023/09/08 03:57:58;;;;;;;11.43;8.40;;;;;;;21.08;100.00;96440.97;6153862;23;20001;-83
2023/09/08 04:00:23;;;;;;;11.17;8.80;;;;;;;21.00;100.00;96449.28;6154393;23;20009;-82
2023/09/08 04:02:49;;;;;;;10.90;8.30;;;;;;;21.35;100.00;96446.09;6128801;23;20016;-83
2023/09/08 04:05:16;;;;;;;12.60;8.27;;;;;;;21.51;100.00;96442.03;6129769;23;20001;-83
2023/09/08 04:07:41;;;;;;;11.40;8.53;;;;;;;21.37;100.00;96447.53;6129142;23;20051;-82
2023/09/08 04:10:08;;;;;;;10.70;8.43;;;;;;;21.63;100.00;96451.78;6129504;23;19997;-83
2023/09/08 04:12:33;;;;;;;16.20;7.90;;;;;;;21.69;100.00;96450.03;6129232;23;20036;-83
2023/09/08 04:14:59;;;;;;;11.77;9.07;;;;;;;21.50;100.00;96448.44;6130161;23;20341;-82
2023/09/08 04:17:24;;;;;;;13.50;9.40;;;;;;;21.41;100.00;96451.38;6128893;23;20016;-82
2023/09/08 04:19:50;;;;;;;14.80;8.73;;;;;;;21.69;100.00;96452.72;6130139;23;20005;-81
2023/09/08 04:22:19;;;;;;;12.93;8.73;;;;;;;21.75;100.00;96443.78;6129659;23;19996;-83
2023/09/08 04:24:45;;;;;;;13.13;8.70;;;;;;;21.93;100.00;96448.31;6129732;23;20434;-82
2023/09/08 04:27:11;;;;;;;12.37;8.90;;;;;;;21.88;100.00;96448.97;6129804;23;20071;-83
2023/09/08 04:29:37;;;;;;;13.20;8.27;;;;;;;21.70;100.00;96449.00;6129871;23;20062;-83
2023/09/08 04:32:08;;;;;;;12.13;8.57;;;;;;;21.78;100.00;96451.38;6154390;23;20001;-83
2023/09/08 04:34:41;;;;;;;13.70;9.10;;;;;;;21.69;100.00;96447.34;6154454;23;20001;-82
2023/09/08 04:37:08;;;;;;;11.77;8.15;;;;;;;21.62;100.00;96446.63;6128323;23;20005;-82
2023/09/08 04:39:36;;;;;;;11.73;8.03;;;;;;;21.76;100.00;96444.59;6152798;23;20100;-82
2023/09/08 04:42:03;;;;;;;12.87;8.03;;;;;;;21.57;100.00;96438.47;6128692;23;20456;-82
2023/09/08 04:44:29;;;;;;;11.30;8.77;;;;;;;21.21;100.00;96447.25;6129227;23;20008;-82
2023/09/08 04:46:55;;;;;;;11.20;8.07;;;;;;;20.81;100.00;96445.75;6129102;23;20083;-82
2023/09/08 04:49:20;;;;;;;11.77;9.00;;;;;;;20.98;100.00;96451.34;6128982;23;20029;-81
2023/09/08 04:51:46;;;;;;;11.57;8.33;;;;;;;20.95;100.00;96449.13;6129616;23;20009;-82
2023/09/08 04:54:14;;;;;;;10.27;8.03;;;;;;;21.38;100.00;96451.81;6130130;23;20001;-82
2023/09/08 04:56:41;;;;;;;13.93;8.83;;;;;;;21.48;100.00;96450.50;6129326;23;20017;-82
2023/09/08 04:59:07;;;;;;;10.70;7.90;;;;;;;21.66;100.00;96458.50;6154601;23;20083;-81
2023/09/08 05:01:33;;;;;;;15.17;8.13;;;;;;;21.40;100.00;96452.44;6154476;23;20000;-82
2023/09/08 05:04:00;;;;;;;11.57;8.30;;;;;;;21.43;100.00;96456.53;6157133;23;20040;-82
2023/09/08 05:06:26;;;;;;;13.30;9.20;;;;;;;21.18;100.00;96453.84;6157999;23;20090;-82
2023/09/08 05:08:52;;;;;;;13.33;8.17;;;;;;;21.06;100.00;96460.94;6129414;23;20008;-82
2023/09/08 05:11:19;;;;;;;11.20;7.93;;;;;;;21.22;100.00;96457.72;6129760;23;20005;-82
2023/09/08 05:13:46;;;;;;;11.10;7.77;;;;;;;21.49;100.00;96462.81;6129017;23;20008;-82
2023/09/08 05:16:12;;;;;;;10.73;8.03;;;;;;;21.33;100.00;96459.69;6128201;23;20004;-82
2023/09/08 05:18:41;;;;;;;11.10;8.53;;;;;;;21.29;100.00;96463.81;6129790;23;20025;-82
2023/09/08 05:21:08;;;;;;;12.53;9.37;;;;;;;21.64;100.00;96453.38;6129636;23;20009;-82
2023/09/08 05:23:34;;;;;;;12.37;9.67;;;;;;;21.74;100.00;96463.56;6152957;23;20012;-81
2023/09/08 05:26:00;;;;;;;14.53;9.60;;;;;;;22.10;100.00;96461.91;6129208;23;20037;-82
2023/09/08 05:28:27;;;;;;;12.33;9.53;;;;;;;22.16;100.00;96462.88;6153703;23;20028;-82
2023/09/08 05:30:53;;;;;;;12.63;8.33;;;;;;;22.79;100.00;96465.03;6129414;23;20012;-82
2023/09/08 05:33:19;;;;;;;11.33;8.83;;;;;;;23.16;100.00;96468.38;6129616;23;20013;-81
2023/09/08 05:35:47;;;;;;;18.10;8.57;;;;;;;23.45;100.00;96471.19;6152374;23;20460;-81
2023/09/08 05:38:12;;;;;;;12.33;8.70;;;;;;;23.83;100.00;96467.16;6127012;23;20012;-81
2023/09/08 05:40:39;;;;;;;10.67;7.90;;;;;;;23.80;100.00;96473.81;6129084;23;20043;-81
2023/09/08 05:43:05;;;;;;;10.02;7.53;;;;;;;24.20;100.00;96479.19;6127637;23;20009;-81
2023/09/08 05:45:32;;;;;;;10.38;7.43;;;;;;;24.45;100.00;96478.09;6129178;23;20573;-81
2023/09/08 05:47:58;;;;;;;12.90;7.47;;;;;;;24.33;100.00;96479.97;6152315;23;20016;-81
2023/09/08 05:50:25;;;;;;;11.00;6.70;;;;;;;24.73;100.00;96471.03;6128420;23;20005;-81
2023/09/08 05:52:51;;;;;;;13.35;7.72;;;;;;;24.69;100.00;96476.91;6128558;23;20017;-81
2023/09/08 05:55:17;;;;;;;9.93;7.47;;;;;;;24.69;100.00;96478.78;6129520;23;20442;-81
2023/09/08 05:57:43;;;;;;;12.30;7.63;;;;;;;24.29;100.00;96486.88;6127905;23;20005;-81
2023/09/08 06:00:09;;;;;;;10.15;7.22;;;;;;;24.39;100.00;96484.38;6129146;23;20001;-81
2023/09/08 06:02:50;;;;;;;10.95;7.22;;;;;;;24.77;97.35;96472.16;6130622;23;20087;-81
2023/09/08 06:05:17;;;;;;;9.52;6.68;;;;;;;24.29;100.00;96481.50;6130860;23;20083;-81
2023/09/08 06:07:43;;;;;;;11.27;6.97;;;;;;;24.23;100.00;96477.91;6129441;23;20008;-81
2023/09/08 06:10:09;;;;;;;9.18;6.30;;;;;;;24.25;100.00;96475.81;6131649;23;19997;-81
2023/09/08 06:12:37;;;;;;;11.10;6.32;;;;;;;23.75;100.00;96479.91;6152707;23;20033;-81
2023/09/08 06:15:03;;;;;;;10.38;6.78;;;;;;;24.68;100.00;96469.91;6155686;23;20021;-81
2023/09/08 06:17:29;;;;;;;8.75;5.95;;;;;;;23.93;100.00;96473.56;6129498;23;20052;-81
2023/09/08 06:19:55;;;;;;;8.73;6.25;;;;;;;25.37;97.65;96463.47;6131016;23;20009;-82
2023/09/08 06:22:21;;;;;;;8.02;6.03;;;;;;;25.82;91.16;96465.16;6131146;23;20016;-81
2023/09/08 06:24:47;;;;;;;7.18;5.25;;;;;;;25.93;84.18;96458.84;6131045;23;20005;-81
2023/09/08 06:27:15;;;;;;;10.95;6.07;;;;;;;25.76;90.83;96460.75;6129936;23;20084;-81
2023/09/08 06:29:55;;;;;;;8.52;5.45;;;;;;;25.74;92.42;96462.88;6154479;23;20000;-81
2023/09/08 06:32:20;;;;;;;11.75;5.90;;;;;;;25.78;92.71;96461.31;6154700;23;20498;-81
2023/09/08 06:34:48;;;;;;;11.55;5.38;;;;;;;26.30;86.52;96469.78;6131307;23;20012;-81
2023/09/08 06:37:14;;;;;;;6.95;5.40;;;;;;;25.69;93.84;96457.41;6129597;23;20004;-81
2023/09/08 06:39:40;;;;;;;10.52;6.57;;;;;;;26.03;93.78;96453.56;6129856;23;20005;-81
2023/09/08 06:42:06;;;;;;;8.18;5.93;;;;;;;25.80;95.26;96462.72;6129905;23;20069;-81
2023/09/08 06:44:31;;;;;;;8.15;5.80;;;;;;;25.82;93.18;96462.47;6130446;23;20051;-81
2023/09/08 06:46:57;;;;;;;10.95;6.10;;;;;;;26.62;88.67;96460.94;6130066;23;20005;-82
2023/09/08 06:49:24;;;;;;;10.65;6.28;;;;;;;27.16;79.66;96469.00;6155547;23;20013;-82
2023/09/08 06:51:50;;;;;;;8.60;6.13;;;;;;;27.14;81.28;96457.63;6130469;23;20001;-82
2023/09/08 06:54:15;;;;;;;9.70;6.53;;;;;;;27.66;78.00;96464.16;6130306;23;20318;-82
2023/09/08 06:56:43;;;;;;;10.93;5.78;;;;;;;28.25;66.43;96468.50;6154825;23;20012;-83
2023/09/08 06:59:21;;;;;;;10.95;5.68;;;;;;;27.86;71.06;96464.28;6155310;23;20009;-83
2023/09/08 07:01:47;;;;;;;8.20;5.00;;;;;;;28.47;69.72;96466.41;6131349;23;20075;-83
2023/09/08 07:04:13;;;;;;;10.55;5.93;;;;;;;28.49;68.19;96466.13;6155452;23;20005;-82
2023/09/08 07:06:41;;;;;;;10.23;5.47;;;;;;;28.52;67.83;96471.03;6155174;23;20032;-82
2023/09/08 07:09:08;;;;;;;8.45;5.85;;;;;;;27.95;71.27;96467.31;6155189;23;20005;-82
2023/09/08 07:11:34;;;;;;;8.75;5.35;;;;;;;28.30;70.70;96473.91;6130039;23;20016;-82
2023/09/08 07:14:02;;;;;;;8.30;6.05;;;;;;;28.94;71.51;96472.66;6129834;23;20013;-82
2023/09/08 07:16:28;;;;;;;9.45;6.00;;;;;;;30.36;61.05;96463.44;6129707;23;20027;-82
2023/09/08 07:18:54;;;;;;;7.25;5.28;;;;;;;29.90;62.18;96468.25;6154691;23;20426;-82
2023/09/08 07:21:20;;;;;;;8.57;5.93;;;;;;;31.17;56.72;96461.25;6129740;23;20000;-82
2023/09/08 07:23:46;;;;;;;7.60;4.97;;;;;;;31.18;55.56;96466.41;6155026;23;20005;-80
2023/09/08 07:26:13;;;;;;;7.07;5.47;;;;;;;30.67;56.65;96465.97;6130112;23;20013;-80
2023/09/08 07:28:39;;;;;;;8.40;5.60;;;;;;;29.77;59.56;96467.72;6130085;23;20001;-80
2023/09/08 07:31:09;;;;;;;15.45;5.93;;;;;;;29.22;64.67;96464.03;6130657;23;20354;-80
2023/09/08 07:33:38;;;;;;;12.15;6.03;;;;;;;28.67;68.93;96460.19;6130645;23;20005;-80
2023/09/08 07:36:05;;;;;;;8.43;5.47;;;;;;;28.69;70.97;96458.06;6154174;23;20009;-80
2023/09/08 07:38:31;;;;;;;11.35;5.57;;;;;;;29.04;67.32;96468.13;6129596;23;20013;-80
2023/09/08 07:41:00;;;;;;;7.80;5.13;;;;;;;29.58;67.53;96459.38;6128886;23;20039;-80
2023/09/08 07:43:27;;;;;;;7.88;5.32;;;;;;;29.61;63.71;96468.84;6153999;23;20016;-80
2023/09/08 07:45:52;;;;;;;11.05;5.28;;;;;;;30.85;58.69;96461.78;6128486;23;20005;-80
2023/09/08 07:48:18;;;;;;;8.50;4.35;;;;;;;31.72;53.38;96461.00;6129721;23;20009;-81
2023/09/08 07:50:43;;;;;;;8.05;5.00;;;;;;;30.50;55.84;96467.16;6129271;23;20061;-81
2023/09/08 07:53:10;;;;;;;7.50;4.80;;;;;;;30.42;56.97;96464.25;6130019;23;20029;-81
2023/09/08 07:55:36;;;;;;;6.97;5.30;;;;;;;30.34;58.97;96462.09;6154499;23;20001;-81
2023/09/08 07:58:05;;;;;;;7.43;4.80;;;;;;;30.79;57.25;96462.94;6129659;23;20020;-81
2023/09/08 08:00:31;;;;;;;9.00;5.25;;;;;;;32.67;50.17;96457.38;6129908;23;20577;-81
2023/09/08 08:03:00;;;;;;;7.43;4.72;;;;;;;32.94;50.04;96467.59;6129723;23;20036;-81
2023/09/08 08:05:26;;;;;;;9.93;5.05;;;;;;;33.13;48.66;96458.56;6154633;23;20233;-81
2023/09/08 08:07:51;;;;;;;9.52;5.25;;;;;;;33.09;48.12;96461.09;6128783;23;20429;-81
2023/09/08 08:10:17;;;;;;;8.60;5.32;;;;;;;32.13;49.22;96459.47;6154145;23;20001;-81
2023/09/08 08:12:43;;;;;;;9.48;4.75;;;;;;;31.63;48.42;96458.94;6129585;23;20004;-80
2023/09/08 08:15:10;;;;;;;8.68;5.28;;;;;;;30.28;53.35;96464.84;6130846;23;20001;-81
2023/09/08 08:17:37;;;;;;;9.63;5.15;;;;;;;31.05;54.42;96458.09;6153477;23;20587;-81
2023/09/08 08:20:09;;;;;;;7.57;4.72;;;;;;;32.56;49.17;96455.91;6130041;23;20005;-81
2023/09/08 08:22:35;;;;;;;6.28;4.32;;;;;;;33.20;46.71;96456.28;6128572;23;20500;-81
2023/09/08 08:25:01;;;;;;;9.38;5.28;;;;;;;32.52;48.99;96461.13;6153749;23;20484;-81
2023/09/08 08:27:27;;;;;;;7.55;4.50;;;;;;;33.48;45.35;96460.72;6179644;23;20033;-80
2023/09/08 08:30:00;;;;;;;7.95;4.82;;;;;;;33.02;47.33;96464.19;6153234;23;20028;-81
2023/09/08 08:32:26;;;;;;;8.68;5.68;;;;;;;34.36;45.06;96452.41;6129712;23;20013;-81
2023/09/08 08:34:52;;;;;;;8.50;5.18;;;;;;;33.48;45.59;96462.59;6129217;23;20020;-81
2023/09/08 08:37:18;;;;;;;9.90;5.30;;;;;;;33.49;44.70;96459.59;6151979;23;20341;-81
2023/09/08 08:39:43;;;;;;;8.68;4.88;;;;;;;34.49;43.04;96453.50;6127315;23;20457;-81
2023/09/08 08:42:10;;;;;;;8.50;4.43;;;;;;;35.03;42.39;96453.66;6127471;23;20458;-81
2023/09/08 08:44:38;;;;;;;7.82;4.82;;;;;;;33.98;43.58;96454.59;6128275;23;20012;-80
2023/09/08 08:47:06;;;;;;;6.68;4.68;;;;;;;35.32;42.70;96456.75;6128505;23;20001;-82
2023/09/08 08:49:33;;;;;;;7.78;4.72;;;;;;;35.39;41.34;96454.38;6129778;23;20005;-81
2023/09/08 08:52:00;;;;;;;7.63;4.55;;;;;;;35.85;40.64;96450.44;6129552;23;20084;-81
2023/09/08 08:54:26;;;;;;;8.95;4.80;;;;;;;35.66;40.96;96449.88;6153986;23;20005;-81
2023/09/08 08:56:52;;;;;;;6.65;4.82;;;;;;;34.85;42.53;96453.53;6128151;23;20036;-81
2023/09/08 08:59:18;;;;;;;7.03;4.85;;;;;;;35.37;40.61;96450.34;6178674;23;20008;-81
2023/09/08 09:01:45;;;;;;;7.38;3.78;;;;;;;37.03;38.43;96447.72;6154339;23;20322;-81
2023/09/08 09:04:13;;;;;;;8.60;5.20;;;;;;;35.07;41.00;96454.66;6153802;23;20012;-81
2023/09/08 09:06:43;;;;;;;5.97;4.20;;;;;;;36.95;39.31;96453.19;6152503;23;20092;-81
2023/09/08 09:09:10;;;;;;;8.27;5.10;;;;;;;35.43;39.82;96447.16;6129074;23;20334;-81
2023/09/08 09:11:36;;;;;;;8.18;5.05;;;;;;;37.36;38.18;96443.59;6129055;23;20009;-81
2023/09/08 09:14:02;;;;;;;10.32;5.38;;;;;;;36.23;39.79;96443.63;6130521;23;20567;-81
2023/09/08 09:16:28;;;;;;;8.18;4.80;;;;;;;36.72;38.96;96441.59;6129497;23;20088;-81
2023/09/08 09:18:56;;;;;;;8.32;4.90;;;;;;;38.36;37.06;96442.22;6129428;23;20001;-81
2023/09/08 09:21:22;;;;;;;12.27;4.43;;;;;;;35.54;40.31;96446.91;6128852;23;20434;-81
2023/09/08 09:23:47;;;;;;;7.88;5.35;;;;;;;36.22;38.45;96450.22;6128689;23;20068;-81
2023/09/08 09:26:25;;;;;;;6.28;4.70;;;;;;;37.09;38.43;96445.63;6128062;23;20013;-81
2023/09/08 09:28:52;;;;;;;8.13;4.55;;;;;;;37.62;36.52;96452.59;6128352;23;20001;-81
2023/09/08 09:31:18;;;;;;;9.98;4.45;;;;;;;36.68;38.63;96451.59;6179879;23;20005;-81
2023/09/08 09:33:45;;;;;;;9.52;4.50;;;;;;;37.96;36.77;96450.84;6129735;23;20729;-84
2023/09/08 09:36:20;;;;;;;7.85;5.35;;;;;;;36.26;39.38;96452.00;6154279;23;20019;-84
2023/09/08 09:38:47;;;;;;;7.45;4.75;;;;;;;36.91;37.96;96444.81;6128900;23;20001;-85
2023/09/08 09:41:13;;;;;;;7.40;4.75;;;;;;;36.69;38.49;96451.28;6131398;23;20009;-85
2023/09/08 09:43:38;;;;;;;7.93;4.72;;;;;;;34.89;41.97;96449.03;6155644;23;20009;-85
2023/09/08 09:46:08;;;;;;;9.65;5.03;;;;;;;35.02;41.28;96446.59;6131429;23;20012;-85
2023/09/08 09:48:35;;;;;;;10.82;5.32;;;;;;;35.84;40.21;96443.31;6155900;23;20009;-85
2023/09/08 09:51:16;;;;;;;7.43;5.32;;;;;;;35.52;39.69;96443.69;6155772;23;20331;-84
2023/09/08 09:53:42;;;;;;;8.50;4.95;;;;;;;35.94;38.87;96435.94;6157327;23;20071;-85
2023/09/08 09:56:09;;;;;;;7.13;4.32;;;;;;;36.91;39.13;96441.25;6131655;23;20012;-85
2023/09/08 09:58:40;;;;;;;7.43;5.00;;;;;;;36.96;38.42;96446.59;6183294;23;20083;-84
2023/09/08 10:01:07;;;;;;;8.15;5.00;;;;;;;36.31;38.71;96448.31;6156435;23;20009;-84
2023/09/08 10:03:33;;;;;;;8.90;5.07;;;;;;;36.46;38.37;96444.31;6183185;23;20016;-85
2023/09/08 10:05:59;;;;;;;8.25;4.28;;;;;;;37.91;37.63;96446.38;6131032;23;20327;-84
2023/09/08 10:08:25;;;;;;;7.82;4.68;;;;;;;37.29;37.99;96444.13;6131040;23;20342;-84
2023/09/08 10:10:51;;;;;;;10.85;4.90;;;;;;;37.83;37.63;96435.38;6130814;23;20001;-84
2023/09/08 10:13:42;;;;;;;8.88;4.75;;;;;;;38.93;36.34;96438.09;6131733;23;20001;-85
2023/09/08 10:16:11;;;;;;;7.38;4.68;;;;;;;38.46;36.42;96436.34;6131169;23;20092;-85
2023/09/08 10:18:39;;;;;;;8.02;5.10;;;;;;;38.93;35.58;96433.41;6131255;23;20015;-84
2023/09/08 10:21:07;;;;;;;8.65;5.00;;;;;;;37.66;36.26;96437.09;6155583;23;20374;-85
2023/09/08 10:23:43;;;;;;;9.00;4.60;;;;;;;38.71;35.60;96436.50;6131475;23;20460;-84
2023/09/08 10:26:16;;;;;;;10.88;4.65;;;;;;;38.11;35.55;96427.53;6181629;23;20005;-84
2023/09/08 10:28:43;;;;;;;7.97;4.50;;;;;;;37.87;37.12;96439.09;6131262;23;20012;-85
2023/09/08 10:31:10;;;;;;;7.65;4.00;;;;;;;39.02;34.75;96436.88;6156091;23;20005;-84
2023/09/08 10:33:36;;;;;;;7.22;4.88;;;;;;;39.62;34.64;96425.59;6131799;23;20051;-85
2023/09/08 10:36:05;;;;;;;9.43;4.55;;;;;;;39.68;34.02;96425.03;6155164;23;20017;-84
2023/09/08 10:38:34;;;;;;;8.80;4.70;;;;;;;40.46;33.43;96423.97;6155414;23;20449;-85
2023/09/08 10:41:15;;;;;;;7.95;4.70;;;;;;;39.56;34.33;96425.00;6130651;23;20016;-84
2023/09/08 10:43:46;;;;;;;7.93;4.78;;;;;;;38.26;34.36;96429.69;6182008;23;20020;-85
2023/09/08 10:46:22;;;;;;;6.45;4.13;;;;;;;39.12;34.06;96425.47;6181968;23;20597;-84
2023/09/08 10:48:48;;;;;;;8.30;4.75;;;;;;;39.90;34.20;96426.53;6131070;23;20009;-85
2023/09/08 10:51:15;;;;;;;8.30;5.28;;;;;;;39.62;33.13;96425.59;6129895;23;20630;-84
2023/09/08 10:53:41;;;;;;;6.55;4.30;;;;;;;39.37;33.78;96420.03;6130962;23;20457;-85
2023/09/08 10:56:07;;;;;;;8.15;4.72;;;;;;;38.49;34.71;96418.41;6130559;23;20007;-84
2023/09/08 10:58:37;;;;;;;7.05;4.80;;;;;;;37.65;35.83;96412.72;6131775;23;19997;-84
2023/09/08 11:01:04;;;;;;;6.93;4.82;;;;;;;37.84;35.10;96410.38;6156283;23;20009;-84
2023/09/08 11:03:41;;;;;;;9.40;5.30;;;;;;;36.53;37.95;96420.00;6156244;23;20051;-84
2023/09/08 11:06:12;;;;;;;7.10;4.28;;;;;;;36.68;38.11;96416.75;6130918;23;20733;-84
2023/09/08 11:08:41;;;;;;;9.02;5.38;;;;;;;36.74;37.03;96418.22;6131259;23;20061;-84
2023/09/08 11:11:07;;;;;;;8.68;4.32;;;;;;;37.25;37.33;96415.72;6130357;23;20008;-84
2023/09/08 11:13:32;;;;;;;6.55;4.53;;;;;;;38.12;35.93;96413.44;6155719;23;20005;-84
2023/09/08 11:15:58;;;;;;;8.23;4.60;;;;;;;37.62;35.47;96416.91;6130263;23;20016;-84
2023/09/08 11:18:30;;;;;;;6.63;4.40;;;;;;;38.15;35.06;96412.78;6155545;23;20017;-84
2023/09/08 11:20:56;;;;;;;;;;;;;;;36.46;36.82;96422.41;6131780;23;20377;-85
2023/09/08 11:23:23;;;;;;;8.05;4.60;;;;;;;36.53;37.64;96418.06;6153496;23;20023;-84
2023/09/08 11:25:50;;;;;;;8.25;4.28;;;;;;;38.61;34.69;96411.03;6130080;23;20016;-84